Jay, OK

7:35 PM CDT on August 18, 2019 (GMT -0500)
FryeComp -2 Mi/S SWC | | Change Station
Active Advisory: Heat Advisory

Elev 1138 ft 36.48 °N, 94.61 °W | Updated 11 seconds ago

Partly Cloudy
Partly Cloudy
82.3 °F
Feels Like 89 °F
N
0
Wind Variable Wind from SE
Gusts 1.0 mph

Today
High -- | Low -- °F
--% Chance of Precip.
Yesterday
High -- | Low -- °F
Precip. -- in
Pressure 29.89 in
Visibility 10.0 miles
Clouds Scattered Clouds 11000 ft
Heat Index 89 °F
Dew Point 75 °F
Humidity 79%
Rainfall 0.00 in
Snow Depth Not available.
6:39 AM 8:06 PM
Waning Gibbous, 89% visible
METAR KGMJ 190015Z AUTO 00000KT 10SM SCT110 27/22 A2989 RMK AO2
Pressure 29.89 in
Visibility 10.0 miles
Clouds Scattered Clouds 11000 ft
Heat Index 89 °F
Dew Point 75 °F
Humidity 79%
Rainfall 0.00 in
Snow Depth Not available.
6:39 AM 8:06 PM
Waning Gibbous, 89% visible
METAR KGMJ 190015Z AUTO 00000KT 10SM SCT110 27/22 A2989 RMK AO2

Get Your Daily Forecast Email!

Thanks for signing up!

Be on the lookout for a verification email in your inbox.

You'll start receiving severe weather alerts in your inbox..

×

10-Day Weather Forecast

Almanac

Astronomy

Aug. 18, 2019 Rise Set
Actual Time
Civil Twilight
Nautical Twilight
Astronomical Twilight
Moon
Length of Visible Light
Length of Day
Tomorrow will be .
, % of the Moon is Illuminated

Today's Extremes

State Highs State Lows

Community

WunderPhotos

Category 6

Welcome to Category 6. This is the collective home for Weather Underground's featured writeups by Dr. Jeff Masters (right), Bob Henson (left), Chris Burt, and other regular contributors.

Nearby

Air Quality

  Air Quality AQ Index Pollutant
Not available.

Snow Depth

Station Depth Elevation

Earthquake Activity

City Distance Mag. Time & Date
Minimum magnitude displayed is 2.5.

Coastal Water Temperatures

Place Temperature

Stations

Nearby Weather Stations

Station Location Temp. Windchill Dew Point Humidity Wind Precip. Elev Updated Type
                   

Watches & Warnings

Heat Advisory
Issued: 2:00 PM CDT Aug. 18, 2019 – National Weather Service

... Heat advisory remains in effect from 1 PM to 9 PM CDT Monday...

* heat index... maximum heat index values around 105 to 110
degrees are expected Sunday afternoon and again Monday
afternoon.

* Temperature... mid to upper 90s.

* Impacts... the combination of hot temperatures and high
humidity will combine to create a dangerous situation in which
heat illnesses are possible.

Precautionary/preparedness actions...

Never leave anyone, including pets, in a closed, parked vehicle.
Temperatures inside can reach over 150 degrees quickly, resulting
in heat stroke and death.

Take extra precautions if you work or spend time outside. When
possible, reschedule strenuous activities to early morning or
evening. Wear light weight and loose fitting clothing when
possible and drink plenty of water.